Canon City Fremont County, CO

4:13 AM MDT on July 22, 2017 (GMT -0600)
Canon City Fremont County

Weather History for K1V6 - January, 2014

Change the Weather History Date:

Saturday, January 18, 2014

  Actual Average (KFCS) Record (KFCS)
Temperature  
Mean Temperature 47 °F -  
Max Temperature 62 °F 42 °F 61 °F (2009)
Min Temperature 32 °F 20 °F -19 °F (1984)
Degree Days  
Heating Degree Days 18    
Moisture  
Dew Point 12 °F    
Average Humidity 29    
Maximum Humidity 44    
Minimum Humidity 13    
Precipitation  
Precipitation 0.00 in - - ()
Sea Level Pressure  
Sea Level Pressure 30.17 in    
Wind  
Wind Speed 13 mph (West)    
Max Wind Speed 21 mph    
Max Gust Speed 23 mph    
Visibility 10 miles    
Events      
Averages and records for this station are not official NWS values.
T = Trace of Precipitation, MM = Missing Value Source: NWS Daily Summary

Daily Weather History Graph

Daily Weather History Graph

Search for Another Location

Airport or City:

Trip Planner

Search our weather history database for the weather conditions in past years. The results will help you decide how hot, cold, wet, or windy it might be!

Date:

Astronomy

Jan. 18, 2014 Rise Set
Actual Time 7:15 AM MST 5:07 PM MST
Civil Twilight 6:46 AM MST 5:35 PM MST
Nautical Twilight 6:13 AM MST 6:08 PM MST
Astronomical Twilight 5:42 AM MST 6:39 PM MST
Moon 7:48 PM MST (1/18) 8:18 AM MST (1/18)
Length of Visible Light 10h 49m
Length of Day
9h 52m
Waning Gibbous, 94% of the Moon is Illuminated
Jan 18
Waning Gibbous
Jan 23
Last Quarter
Jan 30
New
Feb 6
First Quarter
Feb 14
Full

Hourly Weather History & Observations

Time (MST) Temp. Windchill Dew Point Humidity Pressure Visibility Wind Dir Wind Speed Gust Speed Precip Events Conditions
12:15 AM 37.4 °F 29.8 °F 14.0 °F 38% 30.09 in 10.0 mi West 11.5 mph - N/A   Clear
12:35 AM 37.4 °F 28.9 °F 12.2 °F 36% 30.09 in 10.0 mi West 13.8 mph - N/A   Clear
12:55 AM 41.0 °F 33.5 °F 12.2 °F 31% 30.09 in 10.0 mi West 13.8 mph - N/A   Clear
1:15 AM 37.4 °F 31.4 °F 12.2 °F 36% 30.10 in 10.0 mi West 8.1 mph 11.5 mph N/A   Clear
1:35 AM 37.4 °F 28.9 °F 12.2 °F 36% 30.11 in 10.0 mi WNW 13.8 mph - N/A   Clear
1:55 AM 35.6 °F 27.1 °F 12.2 °F 38% 30.12 in 10.0 mi WNW 12.7 mph - N/A   Clear
2:15 AM 35.6 °F 26.6 °F 12.2 °F 38% 30.13 in 10.0 mi West 13.8 mph - N/A   Clear
2:35 AM 37.4 °F 28.2 °F 12.2 °F 36% 30.13 in 10.0 mi West 16.1 mph - N/A   Clear
2:55 AM 37.4 °F 28.9 °F 12.2 °F 36% 30.13 in 10.0 mi WNW 13.8 mph - N/A   Clear
3:15 AM 33.8 °F 24.3 °F 12.2 °F 41% 30.13 in 10.0 mi West 13.8 mph - N/A   Clear
3:35 AM 37.4 °F 27.5 °F 12.2 °F 36% 30.12 in 10.0 mi West 18.4 mph 23.0 mph N/A   Clear
3:55 AM 37.4 °F 27.2 °F 12.2 °F 36% 30.12 in 10.0 mi West 19.6 mph - N/A   Clear
4:15 AM 37.4 °F 27.8 °F 12.2 °F 36% 30.12 in 10.0 mi West 17.3 mph - N/A   Clear
4:35 AM 37.4 °F 27.5 °F 12.2 °F 36% 30.11 in 10.0 mi West 18.4 mph - N/A   Clear
4:55 AM 35.6 °F 25.5 °F 12.2 °F 38% 30.12 in 10.0 mi WNW 17.3 mph - N/A   Clear
5:15 AM 37.4 °F 26.9 °F 12.2 °F 36% 30.12 in 10.0 mi WNW 20.7 mph - N/A   Clear
5:35 AM 35.6 °F 26.2 °F 12.2 °F 38% 30.12 in 10.0 mi West 15.0 mph - N/A   Clear
5:55 AM 33.8 °F 24.8 °F 12.2 °F 41% 30.13 in 10.0 mi West 12.7 mph - N/A   Clear
6:15 AM 35.6 °F 26.2 °F 12.2 °F 38% 30.13 in 10.0 mi West 15.0 mph - N/A   Clear
6:25 AM 37.4 °F 28.2 °F 12.2 °F 36% 30.14 in 10.0 mi West 16.1 mph - N/A   Clear
7:35 AM 35.6 °F 25.5 °F 12.2 °F 38% 30.15 in 10.0 mi WNW 17.3 mph - N/A   Clear
7:55 AM 37.4 °F 27.8 °F 12.2 °F 36% 30.16 in 10.0 mi West 17.3 mph - N/A   Clear
8:15 AM 39.2 °F 29.6 °F 12.2 °F 33% 30.16 in 10.0 mi West 19.6 mph - N/A   Clear
8:35 AM 41.0 °F 32.5 °F 12.2 °F 31% 30.18 in 10.0 mi West 17.3 mph - N/A   Clear
8:55 AM 42.8 °F 34.8 °F 12.2 °F 29% 30.18 in 10.0 mi West 17.3 mph - N/A   Clear
9:15 AM 44.6 °F 36.6 °F 12.2 °F 27% 30.19 in 10.0 mi West 19.6 mph - N/A   Clear
9:35 AM 46.4 °F 39.5 °F 12.2 °F 25% 30.20 in 10.0 mi West 17.3 mph 23.0 mph N/A   Clear
9:55 AM 50.0 °F - 12.2 °F 22% 30.21 in 10.0 mi West 18.4 mph - N/A   Clear
10:15 AM 51.8 °F - 12.2 °F 21% 30.20 in 10.0 mi West 19.6 mph 23.0 mph N/A   Clear
10:35 AM 51.8 °F - 12.2 °F 21% 30.20 in 10.0 mi West 17.3 mph - N/A   Clear
10:55 AM 53.6 °F - 14.0 °F 21% 30.20 in 10.0 mi West 16.1 mph - N/A   Clear
11:15 AM 55.4 °F - 14.0 °F 20% 30.19 in 10.0 mi West 13.8 mph - N/A   Clear
11:35 AM 55.4 °F - 14.0 °F 20% 30.18 in 10.0 mi West 13.8 mph 17.3 mph N/A   Clear
11:55 AM 57.2 °F - 14.0 °F 18% 30.17 in 10.0 mi West 12.7 mph - N/A   Clear
12:15 PM 59.0 °F - 14.0 °F 17% 30.16 in 10.0 mi West 12.7 mph 17.3 mph N/A   Clear
12:35 PM 59.0 °F - 12.2 °F 16% 30.16 in 10.0 mi West 12.7 mph - N/A   Clear
12:55 PM 60.8 °F - 12.2 °F 15% 30.14 in 10.0 mi West 11.5 mph - N/A   Clear
1:15 PM 60.8 °F - 12.2 °F 15% 30.14 in 10.0 mi West 16.1 mph - N/A   Clear
1:35 PM 60.8 °F - 10.4 °F 14% 30.14 in 10.0 mi West 9.2 mph - N/A   Clear
1:55 PM 62.6 °F - 10.4 °F 13% 30.14 in 10.0 mi West 11.5 mph - N/A   Clear
2:15 PM 60.8 °F - 10.4 °F 14% 30.14 in 10.0 mi West 6.9 mph - N/A   Clear
2:35 PM 62.6 °F - 10.4 °F 13% 30.14 in 10.0 mi SW 8.1 mph - N/A   Clear
2:55 PM 62.6 °F - 10.4 °F 13% 30.15 in 10.0 mi SSW 6.9 mph - N/A   Clear
3:15 PM 60.8 °F - 10.4 °F 14% 30.16 in 10.0 mi ESE 5.8 mph - N/A   Clear
3:35 PM 60.8 °F - 10.4 °F 14% 30.17 in 10.0 mi ESE 12.7 mph 18.4 mph N/A   Clear
3:55 PM 59.0 °F - 10.4 °F 15% 30.17 in 10.0 mi East 16.1 mph - N/A   Clear
4:15 PM 59.0 °F - 8.6 °F 14% 30.18 in 10.0 mi East 8.1 mph - N/A   Clear
4:35 PM 55.4 °F - 8.6 °F 15% 30.19 in 10.0 mi East 8.1 mph - N/A   Clear
4:55 PM 51.8 °F - 8.6 °F 18% 30.20 in 10.0 mi East 8.1 mph - N/A   Clear
5:15 PM 50.0 °F - 8.6 °F 19% 30.21 in 10.0 mi East 9.2 mph - N/A   Clear
5:35 PM 44.6 °F 39.7 °F 10.4 °F 25% 30.22 in 10.0 mi ENE 9.2 mph - N/A   Clear
5:55 PM 42.8 °F 39.3 °F 12.2 °F 29% 30.23 in 10.0 mi ENE 5.8 mph - N/A   Clear
6:15 PM 42.8 °F 41.1 °F 12.2 °F 29% 30.24 in 10.0 mi NNE 3.5 mph - N/A   Clear
6:35 PM 42.8 °F - 12.2 °F 29% 30.24 in 10.0 mi Calm Calm - N/A   Clear
6:55 PM 39.2 °F 35.9 °F 12.2 °F 33% 30.24 in 10.0 mi WSW 4.6 mph - N/A   Clear
7:15 PM 39.2 °F 37.0 °F 10.4 °F 31% 30.24 in 10.0 mi SW 3.5 mph - N/A   Clear
7:35 PM 39.2 °F 37.0 °F 10.4 °F 31% 30.24 in 10.0 mi West 3.5 mph - N/A   Clear
7:55 PM 37.4 °F 32.1 °F 10.4 °F 33% 30.23 in 10.0 mi NNW 6.9 mph - N/A   Clear
8:15 PM 37.4 °F 31.4 °F 12.2 °F 36% 30.23 in 10.0 mi NNW 8.1 mph - N/A   Clear
8:35 PM 37.4 °F 30.8 °F 12.2 °F 36% 30.23 in 10.0 mi NNW 9.2 mph - N/A   Clear
8:55 PM 35.6 °F 29.9 °F 12.2 °F 38% 30.23 in 10.0 mi WNW 6.9 mph - N/A   Clear
9:15 PM 32.0 °F 23.6 °F 12.2 °F 44% 30.23 in 10.0 mi West 10.4 mph - N/A   Clear
9:35 PM 32.0 °F 24.2 °F 12.2 °F 44% 30.23 in 10.0 mi West 9.2 mph - N/A   Clear
9:55 PM 32.0 °F 23.0 °F 12.2 °F 44% 30.22 in 10.0 mi WNW 11.5 mph - N/A   Clear
10:15 PM 33.8 °F 25.8 °F 12.2 °F 41% 30.22 in 10.0 mi West 10.4 mph - N/A   Clear
10:35 PM 35.6 °F 27.5 °F 12.2 °F 38% 30.21 in 10.0 mi West 11.5 mph - N/A   Clear
10:55 PM 35.6 °F 27.1 °F 12.2 °F 38% 30.20 in 10.0 mi West 12.7 mph - N/A   Clear
11:15 PM 37.4 °F 28.5 °F 12.2 °F 36% 30.19 in 10.0 mi WNW 15.0 mph - N/A   Clear
11:35 PM 37.4 °F 28.5 °F 12.2 °F 36% 30.18 in 10.0 mi WNW 15.0 mph - N/A   Clear
11:55 PM 37.4 °F 26.9 °F 12.2 °F 36% 30.16 in 10.0 mi WNW 20.7 mph - N/A   Clear